This is the latest recevied weather packets stored in our database for station/object N4TLC. If no packets are shown the sender has not sent any weather packets the latest 10 day(s).
| Time | Temp. | Humidity | Pressure | Rain* | Wind** | Luminosity | Snow |
|---|---|---|---|---|---|---|---|
| 1777491872 | 21.67° C | 73% | 1011.5 hPa | 0 mm | - | 848 W/m² | - |
| 1777491569 | 21.67° C | 75% | 1011.4 hPa | 0 mm | - | 843 W/m² | - |
| 1777491267 | 21.11° C | 76% | 1011.6 hPa | 0 mm | - | 395 W/m² | - |
| 1777490963 | 21.11° C | 76% | 1011.7 hPa | 0 mm | - | 349 W/m² | - |
| 1777490659 | 20.56° C | 79% | 1011.9 hPa | 0 mm | - | 589 W/m² | - |
| 1777490355 | 20.56° C | 78% | 1012 hPa | 0 mm | - | 526 W/m² | - |
| 1777490053 | 20° C | 82% | 1012 hPa | 0 mm | - | 438 W/m² | - |
| 1777489750 | 19.44° C | 82% | 1012.2 hPa | 0 mm | - | 437 W/m² | - |
| 1777489447 | 20° C | 79% | 1012.3 hPa | 0 mm | - | 308 W/m² | - |
| 1777489143 | 20° C | 82% | 1012.4 hPa | 0 mm | - | 575 W/m² | - |
| 1777488841 | 18.89° C | 87% | 1012.5 hPa | 0 mm | - | 1012 W/m² | - |
| 1777488538 | 18.33° C | 89% | 1012.9 hPa | 0 mm | - | 628 W/m² | - |
| 1777488235 | 17.78° C | 89% | 1012.6 hPa | 0 mm | - | 295 W/m² | - |
| 1777487934 | 17.78° C | 90% | 1012.6 hPa | 0 mm | - | 149 W/m² | - |
| 1777487631 | 17.78° C | 90% | 1012.7 hPa | 0 mm | - | 167 W/m² | - |
| 1777487328 | 17.78° C | 90% | 1013 hPa | 0 mm | - | 147 W/m² | - |
| 1777487025 | 17.78° C | 90% | 1013.2 hPa | 0 mm | - | 129 W/m² | - |
| 1777486721 | 17.78° C | 90% | 1013 hPa | 0 mm | - | 161 W/m² | - |
| 1777486419 | 17.78° C | 90% | 1013.2 hPa | 0 mm | - | 115 W/m² | - |
| 1777486116 | 17.22° C | 90% | 1013.2 hPa | 0 mm | - | 136 W/m² | - |
| 1777485813 | 17.78° C | 90% | 1013.3 hPa | 0 mm | - | 129 W/m² | - |
| 1777485509 | 17.22° C | 90% | 1013.4 hPa | 0 mm | - | 122 W/m² | - |
| 1777485205 | 17.78° C | 89% | 1013.3 hPa | 0 mm | - | 115 W/m² | - |
| 1777484901 | 17.22° C | 90% | 1013.4 hPa | 0 mm | - | 133 W/m² | - |
| 1777484599 | 17.22° C | 89% | 1013.3 hPa | 0 mm | - | 136 W/m² | - |
* Rain latest hour (hover to see other rain measurements)
** Current wind speed in m/s (hover to see current wind gust speed)